createdAt,value
2019-01-16T00:03:01.360Z,94.60
2019-01-16T00:05:50.024Z,94.50
2019-01-16T00:08:49.505Z,94.60
2019-01-16T00:11:53.623Z,94.50
2019-01-16T00:14:42.544Z,94.50
2019-01-16T00:17:32.981Z,94.50
2019-01-16T00:20:38.773Z,94.40
2019-01-16T00:23:23.306Z,94.30
2019-01-16T00:26:12.845Z,94.30
2019-01-16T00:31:59.055Z,94.30
2019-01-16T00:34:47.998Z,94.20
2019-01-16T00:37:41.007Z,94.20
2019-01-16T00:40:32.814Z,94.10
2019-01-16T00:43:32.109Z,94.10
2019-01-16T00:46:22.910Z,94.10
2019-01-16T00:49:13.805Z,94.20
2019-01-16T00:52:07.269Z,94.60
2019-01-16T00:54:56.672Z,94.70
2019-01-16T00:57:45.928Z,94.80
2019-01-16T01:00:50.166Z,94.70
2019-01-16T01:03:46.536Z,94.60
2019-01-16T01:06:37.452Z,94.40
2019-01-16T01:09:32.323Z,95.00
2019-01-16T01:12:31.898Z,95.30
2019-01-16T01:15:25.172Z,95.20
2019-01-16T01:18:16.055Z,95.00
2019-01-16T01:21:09.519Z,95.00
2019-01-16T01:23:59.137Z,95.30
2019-01-16T01:26:45.179Z,95.80
2019-01-16T01:29:42.000Z,95.90
2019-01-16T01:32:35.796Z,95.80
2019-01-16T01:35:26.537Z,96.00
2019-01-16T01:38:17.303Z,96.00
2019-01-16T01:41:09.794Z,96.10
2019-01-16T01:44:15.425Z,96.50
2019-01-16T01:47:12.047Z,96.70
2019-01-16T01:50:17.997Z,97.20
2019-01-16T01:53:07.362Z,97.20
2019-01-16T01:55:56.036Z,97.50
2019-01-16T01:58:55.792Z,97.30
2019-01-16T02:01:46.388Z,97.20
2019-01-16T02:04:40.187Z,97.10
2019-01-16T02:07:34.341Z,96.90
2019-01-16T02:10:29.270Z,96.80
2019-01-16T02:13:25.689Z,96.70
2019-01-16T02:16:14.817Z,96.40
2019-01-16T02:18:56.260Z,96.30
2019-01-16T02:21:49.181Z,96.20
2019-01-16T02:24:42.534Z,96.00
2019-01-16T02:27:51.199Z,95.90
2019-01-16T02:30:41.922Z,95.80
2019-01-16T02:33:39.333Z,95.60
2019-01-16T02:36:23.718Z,95.40
2019-01-16T02:39:29.587Z,95.30
2019-01-16T02:42:13.592Z,95.40
2019-01-16T02:45:02.786Z,95.40
2019-01-16T02:47:41.830Z,95.40
2019-01-16T02:50:47.704Z,95.30
2019-01-16T02:53:36.000Z,95.10
2019-01-16T02:56:32.322Z,95.10
2019-01-16T02:59:16.277Z,95.10
2019-01-16T03:02:05.302Z,95.10
2019-01-16T03:04:59.206Z,95.20
2019-01-16T03:07:48.406Z,95.20
2019-01-16T03:10:40.011Z,95.30
2019-01-16T03:13:25.118Z,95.40
2019-01-16T03:16:21.465Z,95.40
2019-01-16T03:19:10.634Z,95.30
2019-01-16T03:22:01.472Z,95.20
2019-01-16T03:24:58.359Z,95.10
2019-01-16T03:27:42.469Z,95.00
2019-01-16T03:30:31.470Z,95.00
2019-01-16T03:33:28.128Z,94.90
2019-01-16T03:36:17.108Z,94.80
2019-01-16T03:39:13.840Z,94.90
2019-01-16T03:42:00.642Z,95.00
2019-01-16T03:44:57.225Z,95.00
2019-01-16T03:47:48.703Z,95.20
2019-01-16T03:50:38.535Z,95.30
2019-01-16T03:53:32.855Z,95.50
2019-01-16T03:56:27.622Z,95.70
2019-01-16T03:59:18.392Z,95.80
2019-01-16T04:02:20.831Z,96.00
2019-01-16T04:05:03.277Z,96.30
2019-01-16T04:07:52.497Z,96.50
2019-01-16T04:10:51.931Z,96.70
2019-01-16T04:13:48.471Z,96.80
2019-01-16T04:16:42.070Z,96.80
2019-01-16T04:19:35.396Z,96.80
2019-01-16T04:22:38.127Z,96.90
2019-01-16T04:25:26.997Z,97.10
2019-01-16T04:28:19.509Z,97.20
2019-01-16T04:31:10.221Z,97.30
2019-01-16T04:34:03.778Z,97.40
2019-01-16T04:36:54.405Z,97.60
2019-01-16T04:39:45.083Z,97.60
2019-01-16T04:42:39.043Z,97.70
2019-01-16T04:45:30.938Z,97.80
2019-01-16T04:48:21.708Z,97.90
2019-01-16T04:51:21.307Z,98.00
2019-01-16T04:54:07.945Z,98.00
2019-01-16T04:57:16.437Z,98.00
2019-01-16T05:00:09.862Z,97.90
2019-01-16T05:02:59.084Z,98.00
2019-01-16T05:05:43.190Z,98.00
2019-01-16T05:08:45.958Z,98.00
2019-01-16T05:11:35.242Z,98.00
2019-01-16T05:14:15.241Z,98.00
2019-01-16T05:17:14.687Z,97.90
2019-01-16T05:20:16.286Z,98.00
2019-01-16T05:23:19.243Z,98.10
2019-01-16T05:26:12.670Z,98.10
2019-01-16T05:29:01.535Z,98.10
2019-01-16T05:31:49.833Z,98.10
2019-01-16T05:34:40.069Z,98.00
2019-01-16T05:37:29.953Z,98.00
2019-01-16T05:40:16.555Z,97.90
2019-01-16T05:43:19.566Z,97.80
2019-01-16T05:46:15.208Z,97.90
2019-01-16T05:49:17.540Z,97.80
2019-01-16T05:52:08.237Z,97.10
2019-01-16T05:55:00.349Z,96.60
2019-01-16T05:57:50.938Z,96.80
2019-01-16T06:00:48.046Z,96.70
2019-01-16T06:03:35.065Z,96.90
2019-01-16T06:06:32.390Z,97.10
2019-01-16T06:09:29.234Z,97.30
2019-01-16T06:12:22.831Z,97.40
2019-01-16T06:15:13.735Z,97.40
2019-01-16T06:18:07.714Z,97.40
2019-01-16T06:20:57.656Z,97.10
2019-01-16T06:23:55.025Z,96.90
2019-01-16T06:26:39.199Z,96.90
2019-01-16T06:29:36.347Z,96.70
2019-01-16T06:32:25.620Z,96.70
2019-01-16T06:35:08.994Z,96.80
2019-01-16T06:37:58.290Z,96.90
2019-01-16T06:40:55.068Z,97.00
2019-01-16T06:43:46.166Z,96.70
2019-01-16T06:46:42.542Z,96.30
2019-01-16T06:49:31.817Z,95.80
2019-01-16T06:52:20.389Z,95.40
2019-01-16T06:54:59.520Z,95.20
2019-01-16T06:57:39.836Z,94.80
2019-01-16T07:00:35.533Z,95.10
2019-01-16T07:03:24.770Z,95.00
2019-01-16T07:06:15.339Z,95.00
2019-01-16T07:08:59.382Z,95.10
2019-01-16T07:11:42.281Z,95.10
2019-01-16T07:14:25.234Z,95.30
2019-01-16T07:17:14.158Z,95.40
2019-01-16T07:20:17.293Z,95.10
2019-01-16T07:23:11.098Z,95.00
2019-01-16T07:26:13.618Z,94.70
2019-01-16T07:29:13.502Z,94.40
2019-01-16T07:32:04.054Z,94.00
2019-01-16T07:35:03.477Z,94.00
2019-01-16T07:37:53.954Z,94.00
2019-01-16T07:40:42.449Z,93.90
2019-01-16T07:43:37.378Z,93.30
2019-01-16T07:46:26.908Z,93.30
2019-01-16T07:49:32.434Z,93.10
2019-01-16T07:52:23.016Z,93.10
2019-01-16T07:55:12.249Z,93.40
2019-01-16T07:58:11.714Z,93.70
2019-01-16T08:01:00.617Z,93.90
2019-01-16T08:03:50.921Z,94.30
2019-01-16T08:06:40.505Z,94.60
2019-01-16T08:09:21.436Z,95.00
2019-01-16T08:12:30.117Z,95.20
2019-01-16T08:15:23.409Z,95.30
2019-01-16T08:18:04.595Z,95.50
2019-01-16T08:20:54.045Z,95.40
2019-01-16T08:26:48.173Z,95.70
2019-01-16T08:29:41.505Z,95.60
2019-01-16T08:32:46.962Z,95.60
2019-01-16T08:35:43.313Z,95.60
2019-01-16T08:38:25.943Z,95.70
2019-01-16T08:41:14.767Z,96.00
2019-01-16T08:44:04.220Z,96.00
2019-01-16T08:46:54.911Z,96.10
2019-01-16T08:49:49.069Z,96.20
2019-01-16T08:52:52.202Z,96.20
2019-01-16T08:55:45.905Z,96.20
2019-01-16T09:01:05.373Z,96.30
2019-01-16T09:06:49.721Z,96.50
2019-01-16T09:09:55.461Z,96.60
2019-01-16T09:12:44.306Z,96.60
2019-01-16T09:21:50.081Z,96.70
2019-01-16T09:24:58.934Z,96.70
2019-01-16T09:27:47.979Z,96.80
2019-01-16T09:30:56.532Z,97.00
2019-01-16T09:33:45.440Z,97.00
2019-01-16T09:36:34.375Z,97.00
2019-01-16T09:39:28.548Z,97.10
2019-01-16T09:42:19.311Z,97.20
2019-01-16T09:45:12.056Z,97.30
2019-01-16T09:48:14.789Z,97.30
2019-01-16T09:51:04.213Z,97.50
2019-01-16T09:53:54.204Z,97.50
2019-01-16T09:56:54.273Z,97.50
2019-01-16T09:59:49.684Z,97.40
2019-01-16T10:02:49.232Z,97.50
2019-01-16T10:05:43.110Z,97.30
2019-01-16T10:08:32.607Z,96.90
2019-01-16T10:11:22.185Z,96.60
2019-01-16T10:14:13.532Z,96.30
2019-01-16T10:17:15.591Z,96.00
2019-01-16T10:20:06.387Z,95.90
2019-01-16T10:23:02.942Z,95.60
2019-01-16T10:26:02.633Z,95.20
2019-01-16T10:28:52.046Z,94.80
2019-01-16T10:31:39.532Z,94.60
2019-01-16T10:34:28.391Z,94.60
2019-01-16T10:37:18.836Z,94.80
2019-01-16T10:42:43.060Z,95.70
2019-01-16T10:45:49.629Z,95.90
2019-01-16T10:48:52.667Z,95.90
2019-01-16T10:51:46.127Z,95.90
2019-01-16T10:54:27.485Z,95.70
2019-01-16T10:57:30.248Z,95.50
2019-01-16T11:00:20.906Z,95.60
2019-01-16T11:03:09.739Z,95.80
2019-01-16T11:05:58.762Z,95.80
2019-01-16T11:12:23.527Z,95.90
2019-01-16T11:15:16.885Z,95.90
2019-01-16T11:18:06.968Z,95.80
2019-01-16T11:21:12.794Z,95.70
2019-01-16T11:24:12.883Z,95.80
2019-01-16T11:29:30.722Z,96.00
2019-01-16T11:32:28.742Z,96.10
2019-01-16T11:35:31.589Z,96.20
2019-01-16T11:38:36.009Z,96.30
2019-01-16T11:41:25.867Z,96.50
2019-01-16T11:44:16.477Z,96.50
2019-01-16T11:47:13.242Z,96.50
2019-01-16T11:50:10.997Z,96.40
2019-01-16T11:56:24.841Z,96.20
2019-01-16T11:59:14.965Z,96.00
2019-01-16T12:02:03.972Z,95.90
2019-01-16T12:04:53.619Z,95.80
2019-01-16T12:07:42.850Z,95.40
2019-01-16T12:10:37.663Z,95.40
2019-01-16T12:13:32.038Z,95.30
2019-01-16T12:16:22.682Z,95.00
2019-01-16T12:19:11.128Z,94.80
2019-01-16T12:21:59.154Z,94.60
2019-01-16T12:25:02.272Z,94.30
2019-01-16T12:28:26.520Z,94.30
2019-01-16T12:31:09.422Z,94.20
2019-01-16T12:33:51.025Z,94.20
2019-01-16T12:36:50.605Z,93.80
2019-01-16T12:39:39.791Z,93.60
2019-01-16T12:42:24.289Z,93.50
2019-01-16T12:45:23.842Z,93.20
2019-01-16T12:48:15.153Z,93.20
2019-01-16T12:51:03.953Z,93.20
2019-01-16T12:53:55.096Z,93.30
2019-01-16T12:56:45.230Z,93.00
2019-01-16T12:59:40.486Z,93.10
2019-01-16T13:02:49.225Z,92.80
2019-01-16T13:08:36.909Z,92.80
2019-01-16T13:11:25.691Z,92.80
2019-01-16T13:14:26.699Z,92.60
2019-01-16T13:17:18.713Z,92.70
2019-01-16T13:20:07.686Z,92.50
2019-01-16T13:26:37.126Z,92.40
2019-01-16T13:29:24.051Z,92.30
2019-01-16T13:32:23.342Z,91.90
2019-01-16T13:35:23.131Z,91.80
2019-01-16T13:38:13.748Z,91.70
2019-01-16T13:41:10.256Z,91.60
2019-01-16T13:43:59.359Z,91.10
2019-01-16T13:46:50.356Z,91.30
2019-01-16T13:49:53.376Z,91.30
2019-01-16T13:56:12.808Z,91.00
2019-01-16T13:59:06.739Z,90.90
2019-01-16T14:01:55.900Z,90.70
2019-01-16T14:04:44.821Z,90.70
2019-01-16T14:07:34.009Z,90.70
2019-01-16T14:10:25.063Z,90.40
2019-01-16T14:15:48.428Z,90.00
2019-01-16T14:18:59.185Z,89.80
2019-01-16T14:25:21.860Z,90.00
2019-01-16T14:28:23.941Z,89.60
2019-01-16T14:31:39.385Z,88.50
2019-01-16T14:34:28.845Z,87.80
2019-01-16T14:37:18.301Z,87.40
2019-01-16T14:40:27.616Z,87.90
2019-01-16T14:43:21.785Z,87.70
2019-01-16T14:49:39.901Z,88.40
2019-01-16T14:52:33.923Z,88.10
2019-01-16T14:55:31.345Z,87.80
2019-01-16T14:58:12.442Z,87.80
2019-01-16T15:01:02.227Z,87.70
2019-01-16T15:03:51.821Z,87.50
2019-01-16T15:06:38.808Z,87.70
2019-01-16T15:09:44.525Z,87.90
2019-01-16T15:12:44.399Z,88.00
2019-01-16T15:15:44.627Z,89.20
2019-01-16T15:18:50.539Z,88.60
2019-01-16T15:21:41.370Z,88.10
2019-01-16T15:24:44.012Z,88.90
2019-01-16T15:27:29.468Z,89.80
2019-01-16T15:30:32.425Z,90.40
2019-01-16T15:33:23.949Z,91.00
2019-01-16T15:39:06.430Z,91.40
2019-01-16T15:41:53.174Z,91.10
2019-01-16T15:45:02.497Z,90.80
2019-01-16T15:51:26.028Z,90.60
2019-01-16T15:54:16.720Z,90.00
2019-01-16T15:59:31.316Z,88.50
2019-01-16T16:05:53.500Z,88.00
2019-01-16T16:08:42.752Z,87.40
2019-01-16T16:11:31.920Z,85.20
2019-01-16T16:17:37.068Z,80.10
2019-01-16T16:20:28.356Z,77.40
2019-01-16T16:23:17.561Z,83.90
2019-01-16T16:26:26.694Z,89.00
2019-01-16T16:29:33.377Z,90.10
2019-01-16T16:32:30.024Z,89.30
2019-01-16T16:35:30.006Z,90.20
2019-01-16T16:38:19.197Z,90.50
2019-01-16T16:41:02.895Z,91.30
2019-01-16T16:43:59.315Z,91.30
2019-01-16T16:49:51.401Z,90.40
2019-01-16T16:52:44.215Z,90.00
2019-01-16T16:55:39.365Z,87.40
2019-01-16T16:58:33.473Z,85.10
2019-01-16T17:01:24.108Z,83.80
2019-01-16T17:13:22.682Z,83.10
2019-01-16T17:16:13.119Z,81.10
2019-01-16T17:19:01.509Z,80.50
2019-01-16T17:21:52.980Z,78.40
2019-01-16T17:24:42.681Z,76.70
2019-01-16T17:27:27.630Z,77.50
2019-01-16T17:30:10.589Z,74.50
2019-01-16T17:33:03.897Z,73.20
2019-01-16T17:36:01.072Z,74.20
2019-01-16T17:38:52.253Z,75.90
2019-01-16T17:41:47.308Z,75.50
2019-01-16T17:44:43.913Z,72.90
2019-01-16T17:47:57.354Z,72.40
2019-01-16T17:50:45.348Z,70.40
2019-01-16T17:53:41.837Z,68.20
2019-01-16T17:56:47.055Z,65.60
2019-01-16T17:59:36.194Z,64.40
2019-01-16T18:02:43.890Z,64.80
2019-01-16T18:05:22.451Z,63.70
2019-01-16T18:08:04.724Z,64.00
2019-01-16T18:10:58.429Z,63.00
2019-01-16T18:13:58.011Z,63.40
2019-01-16T18:16:54.784Z,64.20
2019-01-16T18:19:43.636Z,62.00
2019-01-16T18:29:27.425Z,59.90
2019-01-16T18:35:53.392Z,57.90
2019-01-16T18:38:50.618Z,58.60
2019-01-16T18:41:39.972Z,58.60
2019-01-16T18:44:29.047Z,59.40
2019-01-16T18:47:19.349Z,60.20
2019-01-16T18:50:19.361Z,59.90
2019-01-16T18:53:10.218Z,58.70
2019-01-16T18:55:58.963Z,57.20
2019-01-16T18:58:46.763Z,57.10
2019-01-16T19:01:46.308Z,55.30
2019-01-16T19:04:39.618Z,55.00
2019-01-16T19:07:39.029Z,53.00
2019-01-16T19:10:49.065Z,54.40
2019-01-16T19:14:06.721Z,52.60
2019-01-16T19:17:03.018Z,53.20
2019-01-16T19:19:56.432Z,53.60
2019-01-16T19:22:35.520Z,52.80
2019-01-16T19:25:25.085Z,51.70
2019-01-16T19:28:09.478Z,50.60
2019-01-16T19:31:00.650Z,50.60
2019-01-16T19:33:49.907Z,48.00
2019-01-16T19:36:40.736Z,47.60
2019-01-16T19:39:34.299Z,46.70
2019-01-16T19:42:31.213Z,46.20
2019-01-16T19:45:20.202Z,45.30
2019-01-16T19:48:04.473Z,45.00
2019-01-16T19:51:01.153Z,44.60
2019-01-16T19:54:18.818Z,44.70
2019-01-16T19:57:07.614Z,45.10
2019-01-16T20:03:10.474Z,43.90
2019-01-16T20:06:04.009Z,44.10
2019-01-16T20:09:09.523Z,44.20
2019-01-16T20:12:08.445Z,44.70
2019-01-16T20:14:58.157Z,44.40
2019-01-16T20:17:47.546Z,44.30
2019-01-16T20:20:38.359Z,44.30
2019-01-16T20:23:47.101Z,45.10
2019-01-16T20:26:48.673Z,44.70
2019-01-16T20:32:54.789Z,45.60
2019-01-16T20:35:43.526Z,45.90
2019-01-16T20:38:34.097Z,45.90
2019-01-16T20:41:22.897Z,46.00
2019-01-16T20:44:48.505Z,46.30
2019-01-16T20:47:38.993Z,45.20
2019-01-16T20:50:45.416Z,43.90
2019-01-16T20:53:34.560Z,44.30
2019-01-16T20:56:24.797Z,45.00
2019-01-16T20:59:33.714Z,45.40
2019-01-16T21:05:42.070Z,45.50
2019-01-16T21:11:57.118Z,46.10
2019-01-16T21:17:59.610Z,45.90
2019-01-16T21:20:58.713Z,45.90
2019-01-16T21:23:58.908Z,45.90
2019-01-16T21:26:49.530Z,45.90
2019-01-16T21:30:12.316Z,46.70
2019-01-16T21:33:02.179Z,46.30
2019-01-16T21:35:50.734Z,46.20
2019-01-16T21:38:44.634Z,46.00
2019-01-16T21:41:35.633Z,45.90
2019-01-16T21:44:33.970Z,45.80
2019-01-16T21:47:23.002Z,45.70
2019-01-16T21:50:30.980Z,45.50
2019-01-16T21:53:30.429Z,46.00
2019-01-16T21:56:36.872Z,45.50
2019-01-16T21:59:39.791Z,45.60
2019-01-16T22:02:39.534Z,46.20
2019-01-16T22:05:33.568Z,47.20
2019-01-16T22:08:49.903Z,47.80
2019-01-16T22:11:41.292Z,48.40
2019-01-16T22:14:32.099Z,48.60
2019-01-16T22:17:26.341Z,48.60
2019-01-16T22:20:31.058Z,48.40
2019-01-16T22:23:16.593Z,48.50
2019-01-16T22:26:10.326Z,48.60
2019-01-16T22:29:15.858Z,48.20
2019-01-16T22:31:57.589Z,48.20
2019-01-16T22:34:51.216Z,48.30
2019-01-16T22:40:17.876Z,48.40
2019-01-16T22:43:14.909Z,48.40
2019-01-16T22:45:57.118Z,47.70
2019-01-16T22:48:52.889Z,47.40
2019-01-16T22:51:42.154Z,47.30
2019-01-16T22:54:36.491Z,47.20
2019-01-16T22:57:27.290Z,47.20
2019-01-16T23:00:10.507Z,46.70
2019-01-16T23:02:59.401Z,46.20
2019-01-16T23:05:49.181Z,46.10
2019-01-16T23:08:32.110Z,46.40
2019-01-16T23:11:15.948Z,46.50
2019-01-16T23:14:06.189Z,46.60
2019-01-16T23:16:55.528Z,46.90
2019-01-16T23:19:44.476Z,47.20
2019-01-16T23:22:53.178Z,47.50
2019-01-16T23:25:47.180Z,47.70
2019-01-16T23:40:27.061Z,48.50
2019-01-16T23:45:44.444Z,48.70
2019-01-16T23:48:38.150Z,48.80
2019-01-16T23:51:27.659Z,49.10
2019-01-16T23:54:36.657Z,49.30
2019-01-16T23:57:36.886Z,49.50
